Reportes METAR Cercanos

 

LEMD - Madrid/Barajas, Spain
Distance from station: N 10km
Updated: 15/11/2018 09:00
Muy nuboso
Muy nuboso
 Viento del calm
Viento: Calma
Temperatura: 12°C
Rocío: 10°C
Humedad: 88%
Barómetro: 1019 hPa
Clouds: Muy nuboso
Visibility: 10 km
Cloud details: Muy nuboso 1372 m
2018/11/15 09:00 LEMD 150900Z 00000KT 9999 BKN045 12/10 Q1019 NOSIG
LETO - Torrejon (usafb), Spain
Distance from station: NNE 13km
Updated: 15/11/2018 09:00
Poco nuboso
Poco nuboso
 Viento del E
Viento: E 7 km/h
Temperatura: 12°C
Rocío: 10°C
Humedad: 88%
Barómetro: 1019 hPa
Clouds: Poco nuboso
Visibility: 10 km
Cloud details: Poco nuboso 1463 m
2018/11/15 09:00 LETO 150900Z 08004KT 9999 FEW048 12/10 Q1019 NOSIG
 
LEGT - Madrid/Getafe (a, Spain
Distance from station: OSO 18km
Updated: 15/11/2018 09:00
Muy nuboso
Muy nuboso
 Viento del NE
Viento: NE 13 km/h
Temperatura: 12°C
Rocío: 9°C
Humedad: 82%
Barómetro: 1019 hPa
Clouds: Muy nuboso
Visibility: 10 km
Cloud details: Parcialmente nuboso 792 m
Parcialmente nuboso 914 m
Muy nuboso 1219 m
2018/11/15 09:00 LEGT 150900Z 04007KT 9999 SCT026 SCT030 BKN040 12/09 Q1019
LEVS - Madrid/Cuatro Vi, Spain
Distance from station: O 20km
Updated: 15/11/2018 09:00
Parcialmente nuboso
Parcialmente nuboso
 Viento del ENE
Viento: ENE 7 km/h
Temperatura: 13°C
Rocío: 9°C
Humedad: 77%
Barómetro: 1019 hPa
Clouds: Parcialmente nuboso
Visibility: 10 km
Cloud details: Poco nuboso 792 m
Parcialmente nuboso 1676 m
2018/11/15 09:00 LEVS 150900Z 06004KT 350V130 9999 FEW026 SCT055 13/09 Q1019
 
LECV - Madri-Colmenar, Spain
Distance from station: NNO 34km
Updated: 15/11/2018 09:00
Cubierto
Cubierto
 Viento del ENE
Viento: ENE 11 km/h
Temperatura: 11°C
Rocío: 9°C
Humedad: 88%
Barómetro: 1020 hPa
Clouds: Cubierto
Visibility: 10 km
Cloud details: Poco nuboso 610 m
Cubierto 1829 m
2018/11/15 09:00 LECV 150900Z 07006KT 9999 FEW020 OVC060 11/09 Q1020